Flight Track Log - Related Links

Times and Time Zones

All times are in EDT time to prevent confusion due to time zone crossing. See the KAP17 flight status page for this flight to view local times or setup timezone preferences in your user account.

Time Position Orientation Groundspeed Altitude Reporting Facility
EDT Latitude Longitude Course Direction KTS MPH feet Rate Location/Type
Tue 06:26:31 AM 43.6569 -72.2333 144° Southeast 155 178 4,100  Level Boston Center
Tue 06:27:00 AM 43.5981 -72.0981 144° Southeast  Level FlightAware Approximate
Tue 06:27:31 AM 43.6442 -72.1819 109° East 150 173 4,800  Level Boston Center
Tue 06:28:31 AM 43.6211 -72.1333 123° Southeast 150 173 5,500 650 Climbing Boston Center
Tue 06:29:31 AM 43.5878 -72.0875 135° Southeast 150 173 6,100 650 Climbing Boston Center
Tue 06:30:31 AM 43.5542 -72.0447 137° Southeast 162 186 6,800 500 Climbing Boston Center
Tue 06:31:31 AM 43.5186 -71.9964 135° Southeast 173 199 7,100 100 Climbing Boston Center
Tue 06:32:31 AM 43.4808 -71.9450 135° Southeast 179 206 7,000  Descending Boston Center
Tue 06:33:31 AM 43.4475 -71.8967 134° Southeast 184 212 7,100 50 Climbing Boston Center
Tue 06:34:31 AM 43.4075 -71.8400 134° Southeast 190 219 7,100 -50 Level Boston Center
Tue 06:35:31 AM 43.3761 -71.7917 132° Southeast 190 219 7,000 -50 Descending Boston Center
Tue 06:36:31 AM 43.3339 -71.7378 137° Southeast 190 219 7,000 -50 Level Boston Center
Tue 06:37:31 AM 43.3025 -71.6897 132° Southeast 190 219 6,900  Descending Boston Center
Tue 06:38:31 AM 43.2625 -71.6361 136° Southeast 195 224 7,000 71 Climbing Boston Center
Tue 06:38:56 AM 43.2500 -71.6167 131° Southeast 184 212 7,000  Level KA90
Tue 06:39:52 AM 43.2167 -71.5667 132° Southeast 183 211 7,000  Level KA90
Tue 06:40:47 AM 43.1833 -71.5333 144° Southeast 183 211 7,000 -53 Level KA90
Tue 06:41:46 AM 43.1333 -71.5000 154° Southeast 183 211 6,900 -231 Descending KA90
Tue 06:42:31 AM 43.1006 -71.4647 142° Southeast 181 208 6,600 -400 Descending Boston Center
Tue 06:43:31 AM 43.0628 -71.4256 143° Southeast 186 214 6,200 -300 Descending Boston Center
Tue 06:44:31 AM 43.0164 -71.3753 142° Southeast 192 221 6,000 -146 Descending Boston Center
Tue 06:44:53 AM 43.0000 -71.3667 159° South 185 213 6,000  Level KA90
Tue 06:45:47 AM 42.9667 -71.3167 132° Southeast 180 207 6,000  Level KA90
Tue 06:46:46 AM 42.9333 -71.2833 144° Southeast 178 205 6,000  Level KA90
Tue 06:47:45 AM 42.8833 -71.2333 144° Southeast 177 204 6,000  Level KA90
Tue 06:48:46 AM 42.8500 -71.2000 144° Southeast 176 203 6,000 50 Level KA90
Tue 06:49:46 AM 42.8167 -71.1667 144° Southeast 175 201 6,100 50 Climbing KA90
Tue 06:50:46 AM 42.7667 -71.1167 144° Southeast 173 199 6,100  Level KA90
Tue 06:51:47 AM 42.7333 -71.0833 144° Southeast 177 204 6,100 -48 Level KA90
Tue 06:52:52 AM 42.6833 -71.0500 154° Southeast 175 201 6,000 -303 Descending KA90
Tue 06:53:46 AM 42.6500 -71.0167 144° Southeast 185 213 5,500 -526 Descending KA90
Tue 06:54:46 AM 42.6000 -70.9833 154° Southeast 191 220 5,000 -472 Descending KA90
Tue 06:55:53 AM 42.5500 -70.9333 144° Southeast 191 220 4,500 -476 Descending KA90
Tue 06:56:52 AM 42.5167 -70.9000 144° Southeast 191 220 4,000 -655 Descending KA90
Tue 06:57:52 AM 42.4500 -70.9000 180° South 189 217 3,200 -956 Descending KA90
Tue 06:58:45 AM 42.4167 -70.9167 200° South 179 206 2,200 -991 Descending KA90
Tue 06:59:47 AM 42.3667 -70.9333 194° South 146 168 1,300 -800 Descending KA90
Tue 07:00:45 AM 42.3667 -70.9667 270° West 117 135 600 -724 Descending KA90
Tue 07:02:00 AM 42.3630 -71.0064 236° Southwest  Level Estimated
Tue 07:09:00 AM 42.3630 -71.0064 172° South  Level Estimated

Login

Don't have an account? Register now (free) for customized features, flight alerts, and more!